Terminal Aerodrome Forecast
Issued by NWS

Home | Current Version | Previous Version | Text Only | Print | Product List | Glossary On
Versions: 1 2 3 4 5 6 7 8 9 10 11 12 13 14 15 16
690
FTUS45 KABQ 212320
TAFROW
TAF
KROW 212320Z 2200/2224 15014G22KT P6SM SCT045
     FM220100 15020G28KT P6SM VCSH BKN050
      TEMPO 2201/2205 VRB25G35KT TSRA BKN040CB
     FM220500 15013KT P6SM VCSH OVC040
     FM220900 15006KT 6SM BR OVC025
     FM221500 15015KT P6SM SCT025 BKN040
     FM222000 17015G22KT P6SM VCTS SCT080CB SCT150=

USA.gov is the U.S. government's official web portal to all federal, state and local government web resources and services.